sensor_id;sensor_type;location;lat;lon;timestamp;pressure;altitude;pressure_sealevel;temperature;humidity
84932;BME280;75193;53.980;13.902;2024-01-15T00:02:11;98966.69;;;0.97;89.25
84932;BME280;75193;53.980;13.902;2024-01-15T00:04:40;98948.84;;;0.93;89.18
84932;BME280;75193;53.980;13.902;2024-01-15T00:07:07;98951.44;;;0.93;89.61
84932;BME280;75193;53.980;13.902;2024-01-15T00:09:32;98947.97;;;0.94;89.75
84932;BME280;75193;53.980;13.902;2024-01-15T00:11:59;98946.34;;;0.91;89.54
84932;BME280;75193;53.980;13.902;2024-01-15T00:14:25;98935.16;;;0.92;89.48
84932;BME280;75193;53.980;13.902;2024-01-15T00:16:51;98929.91;;;0.95;89.49
84932;BME280;75193;53.980;13.902;2024-01-15T00:19:17;98932.56;;;0.94;89.27
84932;BME280;75193;53.980;13.902;2024-01-15T00:21:44;98919.41;;;1.00;89.21
84932;BME280;75193;53.980;13.902;2024-01-15T00:24:09;98930.53;;;1.00;88.99
84932;BME280;75193;53.980;13.902;2024-01-15T00:26:34;98920.38;;;0.97;88.94
84932;BME280;75193;53.980;13.902;2024-01-15T00:29:00;98904.13;;;0.97;88.86
84932;BME280;75193;53.980;13.902;2024-01-15T00:31:26;98915.09;;;1.00;88.45
84932;BME280;75193;53.980;13.902;2024-01-15T00:33:51;98909.34;;;0.95;88.41
84932;BME280;75193;53.980;13.902;2024-01-15T00:36:17;98914.47;;;0.95;88.45
84932;BME280;75193;53.980;13.902;2024-01-15T00:38:46;98905.16;;;0.93;88.27
84932;BME280;75193;53.980;13.902;2024-01-15T00:41:13;98908.00;;;0.86;88.20
84932;BME280;75193;53.980;13.902;2024-01-15T00:43:38;98908.00;;;0.86;87.83
84932;BME280;75193;53.980;13.902;2024-01-15T00:46:04;98893.91;;;0.76;87.76
84932;BME280;75193;53.980;13.902;2024-01-15T00:48:30;98901.63;;;0.76;87.78
84932;BME280;75193;53.980;13.902;2024-01-15T00:50:55;98902.72;;;0.71;86.83
84932;BME280;75193;53.980;13.902;2024-01-15T00:53:21;98888.41;;;0.65;87.25
84932;BME280;75193;53.980;13.902;2024-01-15T00:55:49;98887.09;;;0.56;86.61
84932;BME280;75193;53.980;13.902;2024-01-15T00:58:15;98892.69;;;0.46;86.70
84932;BME280;75193;53.980;13.902;2024-01-15T01:00:41;98892.97;;;0.40;86.76
84932;BME280;75193;53.980;13.902;2024-01-15T01:03:07;98882.16;;;0.32;86.95
84932;BME280;75193;53.980;13.902;2024-01-15T01:05:36;98885.16;;;0.22;87.17
84932;BME280;75193;53.980;13.902;2024-01-15T01:08:01;98887.88;;;0.18;87.48
84932;BME280;75193;53.980;13.902;2024-01-15T01:10:27;98886.44;;;0.12;87.77
84932;BME280;75193;53.980;13.902;2024-01-15T01:12:53;98875.47;;;0.09;88.01
84932;BME280;75193;53.980;13.902;2024-01-15T01:15:18;98872.19;;;0.05;88.09
84932;BME280;75193;53.980;13.902;2024-01-15T01:17:45;98872.31;;;0.02;88.11
84932;BME280;75193;53.980;13.902;2024-01-15T01:20:10;98859.66;;;-0.03;88.11
84932;BME280;75193;53.980;13.902;2024-01-15T01:22:36;98861.41;;;-0.03;87.68
84932;BME280;75193;53.980;13.902;2024-01-15T01:25:02;98849.59;;;-0.07;88.06
84932;BME280;75193;53.980;13.902;2024-01-15T01:27:27;98851.41;;;-0.09;87.99
84932;BME280;75193;53.980;13.902;2024-01-15T01:29:53;98840.09;;;-0.05;88.12
84932;BME280;75193;53.980;13.902;2024-01-15T01:32:19;98840.03;;;-0.04;88.01
84932;BME280;75193;53.980;13.902;2024-01-15T01:34:44;98827.94;;;-0.02;87.93
84932;BME280;75193;53.980;13.902;2024-01-15T01:37:11;98828.75;;;0.01;87.75
84932;BME280;75193;53.980;13.902;2024-01-15T01:39:40;98825.16;;;0.05;88.02
84932;BME280;75193;53.980;13.902;2024-01-15T01:42:05;98815.91;;;0.01;87.82
84932;BME280;75193;53.980;13.902;2024-01-15T01:44:31;98818.47;;;0.01;87.52
84932;BME280;75193;53.980;13.902;2024-01-15T01:47:01;98806.59;;;-0.02;87.31
84932;BME280;75193;53.980;13.902;2024-01-15T01:49:27;98802.09;;;0.03;87.11
84932;BME280;75193;53.980;13.902;2024-01-15T01:51:56;98791.00;;;0.03;87.11
84932;BME280;75193;53.980;13.902;2024-01-15T01:54:23;98796.22;;;0.01;87.26
84932;BME280;75193;53.980;13.902;2024-01-15T01:56:50;98786.84;;;0.00;87.30
84932;BME280;75193;53.980;13.902;2024-01-15T01:59:16;98779.91;;;0.02;86.78
84932;BME280;75193;53.980;13.902;2024-01-15T02:01:43;98768.78;;;0.02;86.99
84932;BME280;75193;53.980;13.902;2024-01-15T02:04:13;98770.41;;;0.04;86.70
84932;BME280;75193;53.980;13.902;2024-01-15T02:06:39;98763.59;;;0.03;87.11
84932;BME280;75193;53.980;13.902;2024-01-15T02:09:04;98754.00;;;0.07;86.94
84932;BME280;75193;53.980;13.902;2024-01-15T02:11:31;98744.28;;;0.13;86.21
84932;BME280;75193;53.980;13.902;2024-01-15T02:13:56;98733.03;;;0.16;86.68
84932;BME280;75193;53.980;13.902;2024-01-15T02:16:22;98734.63;;;0.18;86.55
84932;BME280;75193;53.980;13.902;2024-01-15T02:18:48;98717.72;;;0.14;86.85
84932;BME280;75193;53.980;13.902;2024-01-15T02:21:14;98728.13;;;0.11;86.64
84932;BME280;75193;53.980;13.902;2024-01-15T02:23:39;98720.97;;;0.18;86.68
84932;BME280;75193;53.980;13.902;2024-01-15T02:26:05;98709.84;;;0.17;86.26
84932;BME280;75193;53.980;13.902;2024-01-15T02:28:32;98719.94;;;0.22;86.03
84932;BME280;75193;53.980;13.902;2024-01-15T02:30:58;98718.81;;;0.27;85.99
84932;BME280;75193;53.980;13.902;2024-01-15T02:33:24;98714.09;;;0.37;85.64
84932;BME280;75193;53.980;13.902;2024-01-15T02:35:50;98703.41;;;0.46;85.40
84932;BME280;75193;53.980;13.902;2024-01-15T02:38:16;98706.50;;;0.53;85.56
84932;BME280;75193;53.980;13.902;2024-01-15T02:40:43;98702.25;;;0.52;85.68
84932;BME280;75193;53.980;13.902;2024-01-15T02:43:09;98699.16;;;0.45;85.65
84932;BME280;75193;53.980;13.902;2024-01-15T02:45:34;98690.53;;;0.46;85.57
84932;BME280;75193;53.980;13.902;2024-01-15T02:48:00;98677.63;;;0.48;85.67
84932;BME280;75193;53.980;13.902;2024-01-15T02:50:25;98679.91;;;0.54;85.20
84932;BME280;75193;53.980;13.902;2024-01-15T02:52:51;98669.41;;;0.58;84.61
84932;BME280;75193;53.980;13.902;2024-01-15T02:55:17;98657.31;;;0.60;84.89
84932;BME280;75193;53.980;13.902;2024-01-15T02:57:43;98656.56;;;0.58;85.44
84932;BME280;75193;53.980;13.902;2024-01-15T03:00:09;98667.97;;;0.53;86.08
84932;BME280;75193;53.980;13.902;2024-01-15T03:02:38;98664.78;;;0.48;86.75
84932;BME280;75193;53.980;13.902;2024-01-15T03:05:09;98658.22;;;0.42;86.98
84932;BME280;75193;53.980;13.902;2024-01-15T03:07:35;98654.66;;;0.45;87.04
84932;BME280;75193;53.980;13.902;2024-01-15T03:10:00;98648.53;;;0.47;86.72
84932;BME280;75193;53.980;13.902;2024-01-15T03:12:26;98646.50;;;0.54;86.41
84932;BME280;75193;53.980;13.902;2024-01-15T03:14:52;98636.22;;;0.54;86.39
84932;BME280;75193;53.980;13.902;2024-01-15T03:17:17;98634.44;;;0.56;86.17
84932;BME280;75193;53.980;13.902;2024-01-15T03:19:43;98640.16;;;0.61;85.93
84932;BME280;75193;53.980;13.902;2024-01-15T03:22:09;98642.91;;;0.58;86.58
84932;BME280;75193;53.980;13.902;2024-01-15T03:24:35;98632.13;;;0.50;87.25
84932;BME280;75193;53.980;13.902;2024-01-15T03:27:01;98635.53;;;0.50;87.77
84932;BME280;75193;53.980;13.902;2024-01-15T03:29:27;98633.13;;;0.47;88.18
84932;BME280;75193;53.980;13.902;2024-01-15T03:31:53;98617.78;;;0.46;87.64
84932;BME280;75193;53.980;13.902;2024-01-15T03:34:19;98619.38;;;0.48;88.02
84932;BME280;75193;53.980;13.902;2024-01-15T03:36:44;98613.47;;;0.46;87.94
84932;BME280;75193;53.980;13.902;2024-01-15T03:39:10;98606.28;;;0.53;87.29
84932;BME280;75193;53.980;13.902;2024-01-15T03:41:35;98608.66;;;0.57;87.32
84932;BME280;75193;53.980;13.902;2024-01-15T03:44:01;98599.66;;;0.49;87.83
84932;BME280;75193;53.980;13.902;2024-01-15T03:46:27;98613.63;;;0.43;88.52
84932;BME280;75193;53.980;13.902;2024-01-15T03:48:52;98615.38;;;0.43;88.82
84932;BME280;75193;53.980;13.902;2024-01-15T03:51:18;98610.22;;;0.43;88.70
84932;BME280;75193;53.980;13.902;2024-01-15T03:53:43;98608.41;;;0.45;88.64
84932;BME280;75193;53.980;13.902;2024-01-15T03:56:09;98591.19;;;0.47;88.33
84932;BME280;75193;53.980;13.902;2024-01-15T03:58:35;98591.19;;;0.47;88.52
84932;BME280;75193;53.980;13.902;2024-01-15T04:01:00;98597.91;;;0.49;88.18
84932;BME280;75193;53.980;13.902;2024-01-15T04:03:25;98580.41;;;0.57;87.75
84932;BME280;75193;53.980;13.902;2024-01-15T04:05:51;98579.25;;;0.63;87.46
84932;BME280;75193;53.980;13.902;2024-01-15T04:08:17;98577.59;;;0.62;87.03
84932;BME280;75193;53.980;13.902;2024-01-15T04:10:42;98569.81;;;0.64;86.96
84932;BME280;75193;53.980;13.902;2024-01-15T04:13:08;98558.13;;;0.74;86.58
84932;BME280;75193;53.980;13.902;2024-01-15T04:15:33;98568.50;;;0.72;86.85
84932;BME280;75193;53.980;13.902;2024-01-15T04:18:00;98569.72;;;0.65;87.13
84932;BME280;75193;53.980;13.902;2024-01-15T04:20:26;98570.63;;;0.64;87.52
84932;BME280;75193;53.980;13.902;2024-01-15T04:22:52;98570.63;;;0.64;87.26
84932;BME280;75193;53.980;13.902;2024-01-15T04:25:17;98586.88;;;0.65;86.74
84932;BME280;75193;53.980;13.902;2024-01-15T04:27:43;98590.66;;;0.57;86.38
84932;BME280;75193;53.980;13.902;2024-01-15T04:30:09;98574.63;;;0.52;86.39
84932;BME280;75193;53.980;13.902;2024-01-15T04:32:34;98584.38;;;0.46;86.07
84932;BME280;75193;53.980;13.902;2024-01-15T04:35:00;98564.75;;;0.45;86.02
84932;BME280;75193;53.980;13.902;2024-01-15T04:37:26;98580.50;;;0.37;85.01
84932;BME280;75193;53.980;13.902;2024-01-15T04:39:51;98582.56;;;0.30;85.63
84932;BME280;75193;53.980;13.902;2024-01-15T04:42:23;98594.56;;;0.30;85.78
84932;BME280;75193;53.980;13.902;2024-01-15T04:44:48;98596.53;;;0.25;85.40
84932;BME280;75193;53.980;13.902;2024-01-15T04:47:15;98592.88;;;0.12;86.29
84932;BME280;75193;53.980;13.902;2024-01-15T04:49:42;98598.22;;;0.07;87.04
84932;BME280;75193;53.980;13.902;2024-01-15T04:52:07;98600.75;;;-0.10;91.53
84932;BME280;75193;53.980;13.902;2024-01-15T04:54:35;98598.94;;;-0.65;94.26
84932;BME280;75193;53.980;13.902;2024-01-15T04:57:01;98603.13;;;3.31;94.60
84932;BME280;75193;53.980;13.902;2024-01-15T04:59:27;98581.44;;;8.14;92.11
84932;BME280;75193;53.980;13.902;2024-01-15T05:01:53;98534.84;;;12.93;72.75
84932;BME280;75193;53.980;13.902;2024-01-15T05:04:18;66089.72;;;-145.08;100.00
84932;BME280;75193;53.980;13.902;2024-01-15T05:06:44;98603.25;;;4.00;nan
84932;BME280;75193;53.980;13.902;2024-01-15T05:09:09;98617.50;;;0.69;nan
84932;BME280;75193;53.980;13.902;2024-01-15T05:11:35;98603.72;;;0.53;nan
84932;BME280;75193;53.980;13.902;2024-01-15T05:14:00;66089.72;;;-145.08;100.00
84932;BME280;75193;53.980;13.902;2024-01-15T05:16:26;98582.72;;;3.70;nan
84932;BME280;75193;53.980;13.902;2024-01-15T05:18:51;98577.22;;;3.04;nan
84932;BME280;75193;53.980;13.902;2024-01-15T05:21:17;98588.38;;;3.62;nan
84932;BME280;75193;53.980;13.902;2024-01-15T05:23:42;98580.41;;;3.93;nan
84932;BME280;75193;53.980;13.902;2024-01-15T05:26:08;98577.56;;;3.84;nan
84932;BME280;75193;53.980;13.902;2024-01-15T05:28:34;98561.16;;;4.12;nan
84932;BME280;75193;53.980;13.902;2024-01-15T05:31:00;98567.28;;;4.23;nan
84932;BME280;75193;53.980;13.902;2024-01-15T05:33:26;98567.03;;;4.41;nan
84932;BME280;75193;53.980;13.902;2024-01-15T05:35:52;98564.41;;;4.68;nan
84932;BME280;75193;53.980;13.902;2024-01-15T05:38:18;98561.63;;;4.31;nan
84932;BME280;75193;53.980;13.902;2024-01-15T05:40:44;98556.19;;;4.48;nan
84932;BME280;75193;53.980;13.902;2024-01-15T05:43:09;98559.00;;;4.58;nan
84932;BME280;75193;53.980;13.902;2024-01-15T05:45:35;98550.75;;;4.91;nan
84932;BME280;75193;53.980;13.902;2024-01-15T05:48:01;98549.16;;;4.50;nan
84932;BME280;75193;53.980;13.902;2024-01-15T05:50:27;98534.94;;;4.31;nan
84932;BME280;75193;53.980;13.902;2024-01-15T05:52:52;98554.00;;;3.88;nan
84932;BME280;75193;53.980;13.902;2024-01-15T05:55:18;98548.69;;;4.04;nan
84932;BME280;75193;53.980;13.902;2024-01-15T05:57:44;98549.72;;;3.75;nan
84932;BME280;75193;53.980;13.902;2024-01-15T06:00:10;98555.75;;;3.61;nan
84932;BME280;75193;53.980;13.902;2024-01-15T06:02:39;98553.06;;;3.34;nan
84932;BME280;75193;53.980;13.902;2024-01-15T06:05:05;98565.72;;;3.39;nan
84932;BME280;75193;53.980;13.902;2024-01-15T06:07:32;98567.84;;;3.18;nan
84932;BME280;75193;53.980;13.902;2024-01-15T06:09:57;98557.41;;;3.48;nan
84932;BME280;75193;53.980;13.902;2024-01-15T06:12:23;98562.03;;;3.57;nan
84932;BME280;75193;53.980;13.902;2024-01-15T06:14:48;98572.50;;;3.68;nan
84932;BME280;75193;53.980;13.902;2024-01-15T06:17:14;98558.50;;;3.72;nan
84932;BME280;75193;53.980;13.902;2024-01-15T06:19:39;98559.47;;;3.84;nan
84932;BME280;75193;53.980;13.902;2024-01-15T06:22:05;98561.75;;;3.33;nan
84932;BME280;75193;53.980;13.902;2024-01-15T06:24:30;98578.50;;;2.97;nan
84932;BME280;75193;53.980;13.902;2024-01-15T06:26:56;98566.66;;;3.38;nan
84932;BME280;75193;53.980;13.902;2024-01-15T06:29:21;98563.50;;;3.32;nan
84932;BME280;75193;53.980;13.902;2024-01-15T06:31:47;98567.91;;;3.73;nan
84932;BME280;75193;53.980;13.902;2024-01-15T06:34:12;98571.03;;;3.78;nan
84932;BME280;75193;53.980;13.902;2024-01-15T06:36:38;98578.41;;;4.11;nan
84932;BME280;75193;53.980;13.902;2024-01-15T06:39:03;98577.31;;;3.74;nan
84932;BME280;75193;53.980;13.902;2024-01-15T06:41:29;98582.59;;;3.58;nan
84932;BME280;75193;53.980;13.902;2024-01-15T06:43:55;98592.94;;;3.85;nan
84932;BME280;75193;53.980;13.902;2024-01-15T06:46:22;98607.47;;;3.59;nan
84932;BME280;75193;53.980;13.902;2024-01-15T06:48:48;98607.19;;;4.19;nan
84932;BME280;75193;53.980;13.902;2024-01-15T06:51:13;98604.59;;;4.19;nan
84932;BME280;75193;53.980;13.902;2024-01-15T06:53:39;98619.53;;;3.30;nan
84932;BME280;75193;53.980;13.902;2024-01-15T06:56:04;98617.41;;;3.80;nan
84932;BME280;75193;53.980;13.902;2024-01-15T06:58:32;98590.66;;;6.95;nan
84932;BME280;75193;53.980;13.902;2024-01-15T07:00:58;98598.50;;;5.87;nan
84932;BME280;75193;53.980;13.902;2024-01-15T07:03:24;66089.72;;;-145.08;100.00
84932;BME280;75193;53.980;13.902;2024-01-15T07:05:49;66089.72;;;-145.08;100.00
84932;BME280;75193;53.980;13.902;2024-01-15T07:08:15;66089.72;;;-145.08;100.00
84932;BME280;75193;53.980;13.902;2024-01-15T07:10:40;66089.72;;;-145.08;100.00
84932;BME280;75193;53.980;13.902;2024-01-15T07:13:06;66089.72;;;-145.08;100.00
84932;BME280;75193;53.980;13.902;2024-01-15T07:15:31;66089.72;;;-145.08;100.00
84932;BME280;75193;53.980;13.902;2024-01-15T07:17:57;66089.72;;;-145.08;100.00
84932;BME280;75193;53.980;13.902;2024-01-15T07:20:22;66089.72;;;-145.08;100.00
84932;BME280;75193;53.980;13.902;2024-01-15T07:22:48;66089.72;;;-145.08;100.00
84932;BME280;75193;53.980;13.902;2024-01-15T07:25:13;66089.72;;;-145.08;100.00
84932;BME280;75193;53.980;13.902;2024-01-15T07:27:39;66089.72;;;-145.08;100.00
84932;BME280;75193;53.980;13.902;2024-01-15T07:30:05;66089.72;;;-145.08;100.00
84932;BME280;75193;53.980;13.902;2024-01-15T07:32:31;66089.72;;;-145.08;100.00
84932;BME280;75193;53.980;13.902;2024-01-15T07:34:57;66089.72;;;-145.08;100.00
84932;BME280;75193;53.980;13.902;2024-01-15T07:37:24;66089.72;;;-145.08;100.00
84932;BME280;75193;53.980;13.902;2024-01-15T07:39:50;66089.72;;;-145.08;100.00
84932;BME280;75193;53.980;13.902;2024-01-15T07:42:16;98471.13;;;40.54;nan
84932;BME280;75193;53.980;13.902;2024-01-15T07:44:42;66089.72;;;-145.08;100.00
84932;BME280;75193;53.980;13.902;2024-01-15T07:47:07;66089.72;;;-145.08;100.00
84932;BME280;75193;53.980;13.902;2024-01-15T07:49:34;66089.72;;;-145.08;100.00
84932;BME280;75193;53.980;13.902;2024-01-15T07:52:00;66089.72;;;-145.08;100.00
84932;BME280;75193;53.980;13.902;2024-01-15T07:54:26;66089.72;;;-145.08;100.00
84932;BME280;75193;53.980;13.902;2024-01-15T07:56:59;66089.72;;;-145.08;100.00
84932;BME280;75193;53.980;13.902;2024-01-15T07:59:26;66089.72;;;-145.08;100.00
84932;BME280;75193;53.980;13.902;2024-01-15T08:01:52;66089.72;;;-145.08;100.00
84932;BME280;75193;53.980;13.902;2024-01-15T08:04:19;66089.72;;;-145.08;100.00
84932;BME280;75193;53.980;13.902;2024-01-15T08:06:45;98641.38;;;4.37;nan
84932;BME280;75193;53.980;13.902;2024-01-15T08:09:11;98592.41;;;3.80;nan
84932;BME280;75193;53.980;13.902;2024-01-15T08:11:40;98668.81;;;2.04;nan
84932;BME280;75193;53.980;13.902;2024-01-15T08:14:10;98655.53;;;2.28;nan
84932;BME280;75193;53.980;13.902;2024-01-15T08:16:36;98653.06;;;2.10;nan
84932;BME280;75193;53.980;13.902;2024-01-15T08:19:02;98640.50;;;1.89;nan
84932;BME280;75193;53.980;13.902;2024-01-15T08:21:27;98660.63;;;2.75;nan
84932;BME280;75193;53.980;13.902;2024-01-15T08:24:00;98662.13;;;2.79;nan
84932;BME280;75193;53.980;13.902;2024-01-15T08:26:27;98670.63;;;2.65;nan
84932;BME280;75193;53.980;13.902;2024-01-15T08:28:53;98667.16;;;2.35;nan
84932;BME280;75193;53.980;13.902;2024-01-15T08:31:19;98657.00;;;2.63;nan
84932;BME280;75193;53.980;13.902;2024-01-15T08:33:44;98680.66;;;2.08;nan
84932;BME280;75193;53.980;13.902;2024-01-15T08:36:10;98672.31;;;2.51;nan
84932;BME280;75193;53.980;13.902;2024-01-15T08:38:36;98669.66;;;2.52;nan
84932;BME280;75193;53.980;13.902;2024-01-15T08:41:01;98683.16;;;2.26;nan
84932;BME280;75193;53.980;13.902;2024-01-15T08:43:27;98681.56;;;2.23;nan
84932;BME280;75193;53.980;13.902;2024-01-15T08:45:53;98668.75;;;3.13;nan
84932;BME280;75193;53.980;13.902;2024-01-15T08:48:19;98679.97;;;2.52;nan
84932;BME280;75193;53.980;13.902;2024-01-15T08:50:44;98680.78;;;2.98;nan
84932;BME280;75193;53.980;13.902;2024-01-15T08:53:13;98662.22;;;4.07;nan
84932;BME280;75193;53.980;13.902;2024-01-15T08:55:39;98670.28;;;3.60;nan
84932;BME280;75193;53.980;13.902;2024-01-15T08:58:04;98667.16;;;3.55;nan
84932;BME280;75193;53.980;13.902;2024-01-15T09:00:31;98674.16;;;3.39;nan
84932;BME280;75193;53.980;13.902;2024-01-15T09:03:42;66089.72;;;-145.08;100.00
84932;BME280;75193;53.980;13.902;2024-01-15T09:06:08;66089.72;;;-145.08;100.00
84932;BME280;75193;53.980;13.902;2024-01-15T09:11:00;66089.72;;;-145.08;100.00
84932;BME280;75193;53.980;13.902;2024-01-15T09:13:28;66089.72;;;-145.08;100.00
84932;BME280;75193;53.980;13.902;2024-01-15T09:15:53;66089.72;;;-145.08;100.00
84932;BME280;75193;53.980;13.902;2024-01-15T09:18:19;66089.72;;;-145.08;100.00
84932;BME280;75193;53.980;13.902;2024-01-15T09:20:44;66089.72;;;-145.08;100.00
84932;BME280;75193;53.980;13.902;2024-01-15T09:23:10;66089.72;;;-145.08;100.00
84932;BME280;75193;53.980;13.902;2024-01-15T09:25:35;66089.72;;;-145.08;100.00
84932;BME280;75193;53.980;13.902;2024-01-15T09:28:01;66089.72;;;-145.08;100.00
84932;BME280;75193;53.980;13.902;2024-01-15T09:30:27;66089.72;;;-145.08;100.00
84932;BME280;75193;53.980;13.902;2024-01-15T09:32:53;66089.72;;;-145.08;100.00
84932;BME280;75193;53.980;13.902;2024-01-15T09:35:18;66089.72;;;-145.08;100.00
84932;BME280;75193;53.980;13.902;2024-01-15T09:37:44;66089.72;;;-145.08;100.00
84932;BME280;75193;53.980;13.902;2024-01-15T09:40:12;66089.72;;;-145.08;100.00
84932;BME280;75193;53.980;13.902;2024-01-15T09:42:42;98729.69;;;6.88;nan
84932;BME280;75193;53.980;13.902;2024-01-15T09:45:08;66089.72;;;-145.08;100.00
84932;BME280;75193;53.980;13.902;2024-01-15T09:47:36;66089.72;;;-145.08;100.00
84932;BME280;75193;53.980;13.902;2024-01-15T09:50:02;66089.72;;;-145.08;100.00
84932;BME280;75193;53.980;13.902;2024-01-15T09:52:30;66089.72;;;-145.08;100.00
84932;BME280;75193;53.980;13.902;2024-01-15T09:54:58;66089.72;;;-145.08;100.00
84932;BME280;75193;53.980;13.902;2024-01-15T09:57:24;120714.25;;;-126.23;0.00
84932;BME280;75193;53.980;13.902;2024-01-15T09:59:52;66089.72;;;-145.08;100.00
84932;BME280;75193;53.980;13.902;2024-01-15T10:02:18;66089.72;;;-145.08;100.00
84932;BME280;75193;53.980;13.902;2024-01-15T10:04:44;66089.72;;;-145.08;100.00
84932;BME280;75193;53.980;13.902;2024-01-15T10:07:15;66089.72;;;-145.08;100.00
84932;BME280;75193;53.980;13.902;2024-01-15T10:09:41;66089.72;;;-145.08;100.00
84932;BME280;75193;53.980;13.902;2024-01-15T10:12:07;66089.72;;;-145.08;100.00
84932;BME280;75193;53.980;13.902;2024-01-15T10:14:34;66089.72;;;-145.08;100.00
84932;BME280;75193;53.980;13.902;2024-01-15T10:16:59;66089.72;;;-145.08;100.00
84932;BME280;75193;53.980;13.902;2024-01-15T10:19:25;66089.72;;;-145.08;100.00
84932;BME280;75193;53.980;13.902;2024-01-15T10:21:51;66089.72;;;-145.08;100.00
84932;BME280;75193;53.980;13.902;2024-01-15T10:24:17;66089.72;;;-145.08;100.00
84932;BME280;75193;53.980;13.902;2024-01-15T10:26:42;66089.72;;;-145.08;100.00
84932;BME280;75193;53.980;13.902;2024-01-15T10:29:09;66089.72;;;-145.08;100.00
84932;BME280;75193;53.980;13.902;2024-01-15T10:31:37;66089.72;;;-145.08;100.00
84932;BME280;75193;53.980;13.902;2024-01-15T10:34:13;66089.72;;;-145.08;100.00
84932;BME280;75193;53.980;13.902;2024-01-15T10:36:41;66089.72;;;-145.08;100.00
84932;BME280;75193;53.980;13.902;2024-01-15T10:39:06;66089.72;;;-145.08;100.00
84932;BME280;75193;53.980;13.902;2024-01-15T10:41:33;66089.72;;;-145.08;100.00
84932;BME280;75193;53.980;13.902;2024-01-15T10:43:58;66089.72;;;-145.08;100.00
84932;BME280;75193;53.980;13.902;2024-01-15T10:46:24;66089.72;;;-145.08;100.00
84932;BME280;75193;53.980;13.902;2024-01-15T10:48:50;66089.72;;;-145.08;100.00
84932;BME280;75193;53.980;13.902;2024-01-15T10:51:17;66089.72;;;-145.08;100.00
84932;BME280;75193;53.980;13.902;2024-01-15T10:53:43;66089.72;;;-145.08;100.00
84932;BME280;75193;53.980;13.902;2024-01-15T10:56:11;66089.72;;;-145.08;100.00
84932;BME280;75193;53.980;13.902;2024-01-15T10:58:39;66089.72;;;-145.08;100.00
84932;BME280;75193;53.980;13.902;2024-01-15T11:01:05;66089.72;;;-145.08;100.00
84932;BME280;75193;53.980;13.902;2024-01-15T11:03:31;66089.72;;;-145.08;100.00
84932;BME280;75193;53.980;13.902;2024-01-15T11:05:57;66089.72;;;-145.08;100.00
84932;BME280;75193;53.980;13.902;2024-01-15T11:08:24;66089.72;;;-145.08;100.00
84932;BME280;75193;53.980;13.902;2024-01-15T11:10:51;66089.72;;;-145.08;100.00
84932;BME280;75193;53.980;13.902;2024-01-15T11:18:34;66089.72;;;-145.08;100.00
84932;BME280;75193;53.980;13.902;2024-01-15T11:26:35;66089.72;;;-145.08;100.00
84932;BME280;75193;53.980;13.902;2024-01-15T11:34:21;66089.72;;;-145.08;100.00
84932;BME280;75193;53.980;13.902;2024-01-15T11:37:08;66089.72;;;-145.08;100.00
84932;BME280;75193;53.980;13.902;2024-01-15T11:42:03;66089.72;;;-145.08;100.00
84932;BME280;75193;53.980;13.902;2024-01-15T11:44:29;66089.72;;;-145.08;100.00
84932;BME280;75193;53.980;13.902;2024-01-15T11:47:02;66089.72;;;-145.08;100.00
84932;BME280;75193;53.980;13.902;2024-01-15T11:49:59;66089.72;;;-145.08;100.00
84932;BME280;75193;53.980;13.902;2024-01-15T11:52:53;66089.72;;;-145.08;100.00
84932;BME280;75193;53.980;13.902;2024-01-15T11:55:34;66089.72;;;-145.08;100.00
84932;BME280;75193;53.980;13.902;2024-01-15T11:58:08;66089.72;;;-145.08;100.00
84932;BME280;75193;53.980;13.902;2024-01-15T12:00:39;66089.72;;;-145.08;100.00
84932;BME280;75193;53.980;13.902;2024-01-15T12:03:05;66089.72;;;-145.08;100.00
84932;BME280;75193;53.980;13.902;2024-01-15T12:05:31;66089.72;;;-145.08;100.00
84932;BME280;75193;53.980;13.902;2024-01-15T12:07:57;66089.72;;;-145.08;100.00
84932;BME280;75193;53.980;13.902;2024-01-15T12:10:22;66089.72;;;-145.08;100.00
84932;BME280;75193;53.980;13.902;2024-01-15T12:15:15;66089.72;;;-145.08;100.00
84932;BME280;75193;53.980;13.902;2024-01-15T12:17:40;66089.72;;;-145.08;100.00
84932;BME280;75193;53.980;13.902;2024-01-15T12:20:06;66089.72;;;-145.08;100.00
84932;BME280;75193;53.980;13.902;2024-01-15T12:22:32;66089.72;;;-145.08;100.00
84932;BME280;75193;53.980;13.902;2024-01-15T12:24:57;66089.72;;;-145.08;100.00
84932;BME280;75193;53.980;13.902;2024-01-15T12:27:24;66089.72;;;-145.08;100.00
84932;BME280;75193;53.980;13.902;2024-01-15T12:29:50;66089.72;;;-145.08;100.00
84932;BME280;75193;53.980;13.902;2024-01-15T12:32:15;66089.72;;;-145.08;100.00
84932;BME280;75193;53.980;13.902;2024-01-15T12:34:41;66089.72;;;-145.08;100.00
84932;BME280;75193;53.980;13.902;2024-01-15T12:37:07;66089.72;;;-145.08;100.00
84932;BME280;75193;53.980;13.902;2024-01-15T12:39:34;66089.72;;;-145.08;100.00
84932;BME280;75193;53.980;13.902;2024-01-15T12:42:01;66089.72;;;-145.08;100.00
84932;BME280;75193;53.980;13.902;2024-01-15T12:44:28;66089.72;;;-145.08;100.00
84932;BME280;75193;53.980;13.902;2024-01-15T12:46:54;66089.72;;;-145.08;100.00
84932;BME280;75193;53.980;13.902;2024-01-15T12:49:21;66089.72;;;-145.08;100.00
84932;BME280;75193;53.980;13.902;2024-01-15T12:51:56;66089.72;;;-145.08;100.00
84932;BME280;75193;53.980;13.902;2024-01-15T12:54:22;66089.72;;;-145.08;100.00
84932;BME280;75193;53.980;13.902;2024-01-15T12:56:50;66089.72;;;-145.08;100.00
84932;BME280;75193;53.980;13.902;2024-01-15T12:59:15;66089.72;;;-145.08;100.00
84932;BME280;75193;53.980;13.902;2024-01-15T13:01:41;66089.72;;;-145.08;100.00
84932;BME280;75193;53.980;13.902;2024-01-15T13:04:07;66089.72;;;-145.08;100.00
84932;BME280;75193;53.980;13.902;2024-01-15T13:06:36;66089.72;;;-145.08;100.00
84932;BME280;75193;53.980;13.902;2024-01-15T13:09:02;66089.72;;;-145.08;100.00
84932;BME280;75193;53.980;13.902;2024-01-15T13:11:31;66089.72;;;-145.08;100.00